createdAt,value
2018-02-20T00:02:25.383Z,100206.98
2018-02-20T00:04:54.171Z,100206.61
2018-02-20T00:07:22.611Z,100201.28
2018-02-20T00:09:51.123Z,100205.28
2018-02-20T00:12:20.651Z,100197.03
2018-02-20T00:14:49.084Z,100193.15
2018-02-20T00:17:17.549Z,100185.69
2018-02-20T00:19:46.035Z,100200.17
2018-02-20T00:22:16.346Z,100193.66
2018-02-20T00:24:45.026Z,100188.86
2018-02-20T00:27:13.835Z,100181.28
2018-02-20T00:29:42.281Z,100182.50
2018-02-20T00:32:10.718Z,100183.06
2018-02-20T00:34:40.369Z,100186.26
2018-02-20T00:37:08.798Z,100179.75
2018-02-20T00:39:38.005Z,100186.69
2018-02-20T00:42:07.271Z,100170.66
2018-02-20T00:44:35.711Z,100181.31
2018-02-20T00:47:04.156Z,100174.17
2018-02-20T00:49:33.604Z,100177.66
2018-02-20T00:52:02.035Z,100179.48
2018-02-20T00:54:31.246Z,100179.59
2018-02-20T00:57:00.890Z,100177.98
2018-02-20T00:59:29.324Z,100179.68
2018-02-20T01:01:58.534Z,100179.98
2018-02-20T01:04:27.969Z,100170.71
2018-02-20T01:06:56.399Z,100172.89
2018-02-20T01:09:25.635Z,100168.60
2018-02-20T01:11:54.427Z,100166.34
2018-02-20T01:14:22.858Z,100172.84
2018-02-20T01:16:51.286Z,100165.05
2018-02-20T01:19:19.827Z,100171.98
2018-02-20T01:21:48.255Z,100164.56
2018-02-20T01:24:16.691Z,100166.05
2018-02-20T01:26:45.434Z,100171.01
2018-02-20T01:29:13.873Z,100166.89
2018-02-20T01:31:43.074Z,100161.73
2018-02-20T01:34:12.307Z,100165.69
2018-02-20T01:36:40.742Z,100158.55
2018-02-20T01:39:09.955Z,100159.41
2018-02-20T01:41:39.186Z,100162.72
2018-02-20T01:44:07.626Z,100157.61
2018-02-20T01:46:36.827Z,100158.98
2018-02-20T01:49:06.067Z,100148.80
2018-02-20T01:51:34.514Z,100156.06
2018-02-20T01:54:02.947Z,100152.20
2018-02-20T01:56:32.590Z,100155.44
2018-02-20T01:59:01.914Z,100156.73
2018-02-20T02:01:30.472Z,100150.59
2018-02-20T02:03:59.895Z,100148.69
2018-02-20T02:06:28.469Z,100148.16
2018-02-20T02:08:57.039Z,100145.56
2018-02-20T02:11:26.501Z,100145.48
2018-02-20T02:13:55.058Z,100147.16
2018-02-20T02:16:23.617Z,100148.28
2018-02-20T02:18:52.987Z,100156.33
2018-02-20T02:21:21.554Z,100152.56
2018-02-20T02:23:50.175Z,100149.57
2018-02-20T02:26:19.645Z,100144.45
2018-02-20T02:28:48.228Z,100142.85
2018-02-20T02:31:16.788Z,100142.68
2018-02-20T02:33:45.411Z,100137.03
2018-02-20T02:36:13.969Z,100138.52
2018-02-20T02:38:42.526Z,100139.20
2018-02-20T02:41:11.245Z,100145.64
2018-02-20T02:43:39.808Z,100139.81
2018-02-20T02:46:08.370Z,100141.82
2018-02-20T02:48:37.402Z,100134.80
2018-02-20T02:51:05.965Z,100136.25
2018-02-20T02:53:34.525Z,100138.95
2018-02-20T02:56:03.133Z,100135.48
2018-02-20T02:58:31.695Z,100134.06
2018-02-20T03:01:00.261Z,100128.27
2018-02-20T03:03:30.604Z,100133.31
2018-02-20T03:05:59.214Z,100136.45
2018-02-20T03:08:27.764Z,100125.08
2018-02-20T03:10:56.371Z,100128.15
2018-02-20T03:13:24.927Z,100133.39
2018-02-20T03:15:54.249Z,100126.98
2018-02-20T03:18:23.165Z,100130.92
2018-02-20T03:20:51.719Z,100123.48
2018-02-20T03:23:20.277Z,100125.20
2018-02-20T03:25:49.654Z,100121.72
2018-02-20T03:28:18.220Z,100118.31
2018-02-20T03:30:46.781Z,100116.53
2018-02-20T03:33:15.587Z,100119.73
2018-02-20T03:35:44.280Z,100112.88
2018-02-20T03:38:12.837Z,100116.44
2018-02-20T03:40:41.443Z,100116.31
2018-02-20T03:43:10.001Z,100112.72
2018-02-20T03:45:38.560Z,100110.45
2018-02-20T03:48:07.953Z,100106.77
2018-02-20T03:50:37.272Z,100097.64
2018-02-20T03:53:05.830Z,100104.31
2018-02-20T03:55:35.211Z,100098.58
2018-02-20T03:58:04.601Z,100104.87
2018-02-20T04:00:33.156Z,100101.70
2018-02-20T04:03:01.771Z,100105.83
2018-02-20T04:05:30.329Z,100102.23
2018-02-20T04:07:58.888Z,100105.09
2018-02-20T04:10:27.497Z,100104.65
2018-02-20T04:12:56.063Z,100111.41
2018-02-20T04:15:25.405Z,100108.74
2018-02-20T04:17:54.373Z,100101.84
2018-02-20T04:20:22.948Z,100107.91
2018-02-20T04:22:51.506Z,100100.96
2018-02-20T04:25:20.400Z,100105.15
2018-02-20T04:27:49.631Z,100113.70
2018-02-20T04:30:18.189Z,100111.02
2018-02-20T04:32:46.795Z,100113.47
2018-02-20T04:35:16.125Z,100118.73
2018-02-20T04:37:45.450Z,100116.77
2018-02-20T04:40:14.073Z,100123.13
2018-02-20T04:42:43.396Z,100123.00
2018-02-20T04:45:11.958Z,100128.19
2018-02-20T04:47:40.657Z,100130.55
2018-02-20T04:50:09.225Z,100122.20
2018-02-20T04:52:37.776Z,100125.83
2018-02-20T04:55:06.396Z,100118.98
2018-02-20T04:57:34.944Z,100121.66
2018-02-20T05:00:03.517Z,100120.88
2018-02-20T05:02:32.924Z,100117.56
2018-02-20T05:05:01.488Z,100126.39
2018-02-20T05:07:30.850Z,100118.73
2018-02-20T05:09:59.461Z,100117.27
2018-02-20T05:12:28.020Z,100126.36
2018-02-20T05:14:56.582Z,100124.25
2018-02-20T05:17:25.209Z,100129.05
2018-02-20T05:19:53.762Z,100126.44
2018-02-20T05:22:22.317Z,100123.21
2018-02-20T05:24:50.932Z,100132.63
2018-02-20T05:27:19.487Z,100129.66
2018-02-20T05:29:48.044Z,100131.98
2018-02-20T05:32:17.408Z,100136.30
2018-02-20T05:34:45.963Z,100136.96
2018-02-20T05:37:15.289Z,100142.63
2018-02-20T05:39:43.897Z,100143.58
2018-02-20T05:42:12.453Z,100145.20
2018-02-20T05:44:41.772Z,100148.73
2018-02-20T05:47:11.368Z,100144.95
2018-02-20T05:49:39.919Z,100145.67
2018-02-20T05:52:09.244Z,100147.84
2018-02-20T05:54:38.047Z,100145.37
2018-02-20T05:57:06.620Z,100148.29
2018-02-20T05:59:35.176Z,100150.69
2018-02-20T06:02:03.877Z,100143.91
2018-02-20T06:04:32.440Z,100153.48
2018-02-20T06:07:01.765Z,100151.98
2018-02-20T06:09:30.378Z,100155.34
2018-02-20T06:11:58.956Z,100144.88
2018-02-20T06:14:27.508Z,100146.27
2018-02-20T06:16:56.121Z,100144.48
2018-02-20T06:19:24.677Z,100141.27
2018-02-20T06:21:53.226Z,100141.53
2018-02-20T06:24:22.599Z,100146.84
2018-02-20T06:26:51.160Z,100147.16
2018-02-20T06:29:19.721Z,100147.62
2018-02-20T06:31:49.329Z,100145.18
2018-02-20T06:34:17.885Z,100146.38
2018-02-20T06:36:46.446Z,100148.03
2018-02-20T06:39:15.819Z,100143.95
2018-02-20T06:41:44.385Z,100140.31
2018-02-20T06:44:14.066Z,100142.98
2018-02-20T06:46:42.980Z,100136.59
2018-02-20T06:49:11.541Z,100138.31
2018-02-20T06:51:40.096Z,100136.43
2018-02-20T06:54:09.468Z,100137.80
2018-02-20T06:56:38.038Z,100137.23
2018-02-20T06:59:06.620Z,100128.05
2018-02-20T07:01:35.372Z,100136.48
2018-02-20T07:04:03.933Z,100126.60
2018-02-20T07:06:32.506Z,100131.69
2018-02-20T07:09:02.073Z,100132.80
2018-02-20T07:11:30.633Z,100140.54
2018-02-20T07:13:59.214Z,100138.30
2018-02-20T07:16:27.827Z,100141.28
2018-02-20T07:18:56.382Z,100134.08
2018-02-20T07:21:24.934Z,100137.22
2018-02-20T07:23:54.701Z,100135.98
2018-02-20T07:26:23.257Z,100133.61
2018-02-20T07:28:51.822Z,100135.72
2018-02-20T07:31:20.696Z,100128.47
2018-02-20T07:33:50.012Z,100135.02
2018-02-20T07:36:18.572Z,100139.18
2018-02-20T07:38:47.957Z,100130.91
2018-02-20T07:41:16.525Z,100136.25
2018-02-20T07:43:45.088Z,100132.55
2018-02-20T07:46:13.897Z,100137.23
2018-02-20T07:48:42.448Z,100134.17
2018-02-20T07:51:11.006Z,100129.83
2018-02-20T07:53:40.568Z,100116.55
2018-02-20T07:56:09.128Z,100120.61
2018-02-20T07:58:37.681Z,100127.88
2018-02-20T08:01:07.052Z,100118.79
2018-02-20T08:03:35.618Z,100126.27
2018-02-20T08:06:04.172Z,100129.77
2018-02-20T08:08:32.999Z,100118.94
2018-02-20T08:11:01.582Z,100124.08
2018-02-20T08:13:30.144Z,100124.16
2018-02-20T08:15:59.155Z,100120.55
2018-02-20T08:18:27.715Z,100123.56
2018-02-20T08:20:56.273Z,100121.43
2018-02-20T08:23:24.882Z,100117.27
2018-02-20T08:25:53.445Z,100114.55
2018-02-20T08:28:21.993Z,100109.31
2018-02-20T08:30:51.384Z,100112.08
2018-02-20T08:33:19.950Z,100108.37
2018-02-20T08:35:48.505Z,100112.04
2018-02-20T08:38:17.114Z,100106.45
2018-02-20T08:40:46.470Z,100109.93
2018-02-20T08:43:15.031Z,100111.55
2018-02-20T08:45:44.813Z,100108.49
2018-02-20T08:48:13.387Z,100101.12
2018-02-20T08:50:41.948Z,100104.59
2018-02-20T08:53:10.565Z,100101.16
2018-02-20T08:55:39.135Z,100090.43
2018-02-20T08:58:07.760Z,100094.37
2018-02-20T09:00:36.721Z,100098.79
2018-02-20T09:03:05.273Z,100099.61
2018-02-20T09:05:33.837Z,100105.51
2018-02-20T09:08:03.215Z,100101.20
2018-02-20T09:10:31.791Z,100094.66
2018-02-20T09:13:00.357Z,100096.66
2018-02-20T09:15:29.020Z,100095.70
2018-02-20T09:17:57.586Z,100097.47
2018-02-20T09:20:26.155Z,100098.42
2018-02-20T09:22:55.536Z,100098.90
2018-02-20T09:25:24.093Z,100095.25
2018-02-20T09:27:52.657Z,100100.10
2018-02-20T09:30:21.269Z,100100.27
2018-02-20T09:32:49.832Z,100094.14
2018-02-20T09:35:18.396Z,100085.20
2018-02-20T09:37:47.228Z,100083.80
2018-02-20T09:40:15.843Z,100077.84
2018-02-20T09:42:45.164Z,100077.20
2018-02-20T09:45:14.098Z,100073.28
2018-02-20T09:47:43.441Z,100075.59
2018-02-20T09:50:12.009Z,100071.41
2018-02-20T09:52:41.405Z,100070.44
2018-02-20T09:55:11.476Z,100065.97
2018-02-20T09:57:40.035Z,100061.69
2018-02-20T10:00:08.817Z,100060.03
2018-02-20T10:02:38.180Z,100063.23
2018-02-20T10:05:06.735Z,100058.13
2018-02-20T10:07:36.117Z,100056.06
2018-02-20T10:10:05.519Z,100048.95
2018-02-20T10:12:34.092Z,100048.89
2018-02-20T10:15:03.473Z,100043.63
2018-02-20T10:17:32.042Z,100042.73
2018-02-20T10:20:00.614Z,100035.31
2018-02-20T10:22:29.221Z,100039.06
2018-02-20T10:24:57.795Z,100043.59
2018-02-20T10:27:26.366Z,100030.16
2018-02-20T10:29:54.993Z,100034.03
2018-02-20T10:32:24.396Z,100023.73
2018-02-20T10:34:53.787Z,100018.30
2018-02-20T10:37:23.164Z,100019.23
2018-02-20T10:39:51.736Z,100016.88
2018-02-20T10:42:20.303Z,100018.08
2018-02-20T10:44:48.921Z,100009.62
2018-02-20T10:47:17.485Z,100005.58
2018-02-20T10:49:46.040Z,100005.72
2018-02-20T10:52:15.146Z,100002.30
2018-02-20T10:54:43.772Z,99992.22
2018-02-20T10:57:12.337Z,99994.34
2018-02-20T10:59:40.965Z,99988.17
2018-02-20T11:02:10.282Z,99986.79
2018-02-20T11:04:38.838Z,99980.58
2018-02-20T11:07:07.545Z,99970.73
2018-02-20T11:09:36.108Z,99976.02
2018-02-20T11:12:04.674Z,99973.27
2018-02-20T11:14:34.231Z,99967.55
2018-02-20T11:17:03.634Z,99963.31
2018-02-20T11:19:32.185Z,99965.83
2018-02-20T11:22:00.781Z,99958.93
2018-02-20T11:24:29.336Z,99951.16
2018-02-20T11:26:58.697Z,99955.74
2018-02-20T11:29:27.474Z,99951.35
2018-02-20T11:31:56.021Z,99953.22
2018-02-20T11:34:24.585Z,99942.36
2018-02-20T11:36:53.970Z,99934.41
2018-02-20T11:39:23.299Z,99935.78
2018-02-20T11:41:51.847Z,99939.80
2018-02-20T11:44:20.454Z,99932.84
2018-02-20T11:46:49.797Z,99936.73
2018-02-20T11:49:18.344Z,99931.75
2018-02-20T11:51:47.715Z,99924.34
2018-02-20T11:54:16.273Z,99926.48
2018-02-20T11:56:44.825Z,99924.87
2018-02-20T11:59:13.644Z,99923.82
2018-02-20T12:01:42.189Z,99927.31
2018-02-20T12:04:10.745Z,99916.70
2018-02-20T12:06:39.441Z,99916.22
2018-02-20T12:09:08.759Z,99913.14
2018-02-20T12:11:37.306Z,99916.41
2018-02-20T12:14:05.913Z,99911.28
2018-02-20T12:16:35.241Z,99915.69
2018-02-20T12:19:03.800Z,99914.80
2018-02-20T12:21:33.232Z,99908.44
2018-02-20T12:24:01.784Z,99904.19
2018-02-20T12:26:31.108Z,99905.06
2018-02-20T12:28:59.925Z,99899.08
2018-02-20T12:31:28.852Z,99901.63
2018-02-20T12:33:58.168Z,99898.91
2018-02-20T12:36:27.542Z,99893.98
2018-02-20T12:38:56.100Z,99894.42
2018-02-20T12:41:24.657Z,99888.25
2018-02-20T12:43:53.392Z,99889.41
2018-02-20T12:46:21.972Z,99889.33
2018-02-20T12:48:50.544Z,99888.69
2018-02-20T12:51:19.149Z,99876.89
2018-02-20T12:53:47.714Z,99875.83
2018-02-20T12:56:16.268Z,99876.73
2018-02-20T12:58:44.884Z,99872.54
2018-02-20T13:01:13.434Z,99867.77
2018-02-20T13:03:42.041Z,99869.43
2018-02-20T13:06:11.452Z,99872.90
2018-02-20T13:08:40.009Z,99869.67
2018-02-20T13:11:08.562Z,99866.00
2018-02-20T13:13:37.165Z,99869.28
2018-02-20T14:07:14.419Z,99819.54
2018-02-20T14:09:42.983Z,99820.48
2018-02-20T14:12:11.528Z,99814.31
2018-02-20T14:14:40.354Z,99812.42
2018-02-20T14:17:08.904Z,99822.12
2018-02-20T14:19:37.461Z,99809.36
2018-02-20T14:22:06.067Z,99818.84
2018-02-20T14:24:34.648Z,99809.52
2018-02-20T14:27:03.968Z,99813.22
2018-02-20T14:29:32.795Z,99809.13
2018-02-20T14:32:01.346Z,99804.49
2018-02-20T14:34:29.901Z,99806.46
2018-02-20T14:36:59.413Z,99801.64
2018-02-20T14:39:27.966Z,99796.27
2018-02-20T14:41:56.513Z,99798.89
2018-02-20T14:44:25.257Z,99795.52
2018-02-20T14:46:53.813Z,99799.55
2018-02-20T14:49:23.133Z,99795.36
2018-02-20T14:51:51.825Z,99791.34
2018-02-20T14:54:20.372Z,99790.03
2018-02-20T14:56:48.976Z,99787.86
2018-02-20T14:59:17.744Z,99791.14
2018-02-20T15:01:47.072Z,99785.83
2018-02-20T15:04:15.692Z,99789.59
2018-02-20T15:06:44.301Z,99783.03
2018-02-20T15:09:12.864Z,99786.22
2018-02-20T15:11:41.420Z,99787.30
2018-02-20T15:14:10.229Z,99787.64
2018-02-20T15:16:38.789Z,99788.83
2018-02-20T15:19:07.341Z,99791.26
2018-02-20T15:21:36.706Z,99783.81
2018-02-20T15:24:05.364Z,99793.56
2018-02-20T15:26:33.926Z,99788.39
2018-02-20T15:29:02.857Z,99786.03
2018-02-20T15:31:31.416Z,99785.34
2018-02-20T15:33:59.977Z,99783.67
2018-02-20T15:36:28.585Z,99789.00
2018-02-20T15:38:57.147Z,99787.94
2018-02-20T15:41:25.718Z,99788.17
2018-02-20T15:43:54.568Z,99781.88
2018-02-20T15:46:23.945Z,99785.98
2018-02-20T15:48:52.508Z,99791.00
2018-02-20T15:51:21.328Z,99789.73
2018-02-20T15:53:49.928Z,99790.28
2018-02-20T15:56:18.481Z,99792.82
2018-02-20T15:58:47.390Z,99793.51
2018-02-20T16:01:15.960Z,99791.84
2018-02-20T16:03:44.837Z,99788.34
2018-02-20T16:06:13.638Z,99793.98
2018-02-20T16:08:42.196Z,99797.16
2018-02-20T16:11:10.762Z,99798.78
2018-02-20T16:13:39.407Z,99792.94
2018-02-20T16:16:11.937Z,99792.69
2018-02-20T16:18:40.858Z,99789.96
2018-02-20T16:21:09.425Z,99785.28
2018-02-20T16:23:38.021Z,99797.23
2018-02-20T16:26:06.644Z,99795.02
2018-02-20T16:28:35.208Z,99799.00
2018-02-20T16:31:04.534Z,99796.53
2018-02-20T16:33:33.351Z,99801.58
2018-02-20T16:36:02.196Z,99800.22
2018-02-20T16:38:30.755Z,99801.96
2018-02-20T16:40:59.700Z,99805.05
2018-02-20T16:43:29.025Z,99805.09
2018-02-20T16:45:58.525Z,99802.59
2018-02-20T16:48:27.151Z,99800.28
2018-02-20T16:50:55.722Z,99795.34
2018-02-20T16:53:24.278Z,99799.36
2018-02-20T16:55:52.926Z,99793.45
2018-02-20T16:58:22.258Z,99793.62
2018-02-20T17:00:50.821Z,99796.84
2018-02-20T17:03:20.383Z,99800.76
2018-02-20T17:05:48.945Z,99793.41
2018-02-20T17:08:17.521Z,99795.83
2018-02-20T17:10:46.343Z,99799.01
2018-02-20T17:13:14.940Z,99796.95
2018-02-20T17:15:43.510Z,99797.70
2018-02-20T17:18:12.195Z,99798.56
2018-02-20T17:20:40.771Z,99790.73
2018-02-20T17:23:10.226Z,99789.28
2018-02-20T17:25:39.600Z,99784.19
2018-02-20T17:28:08.941Z,99793.80
2018-02-20T17:30:37.522Z,99793.33
2018-02-20T17:33:06.369Z,99786.22
2018-02-20T17:35:34.945Z,99795.72
2018-02-20T17:38:03.518Z,99797.68
2018-02-20T17:40:32.131Z,99789.07
2018-02-20T17:43:00.709Z,99790.31
2018-02-20T17:45:29.293Z,99791.51
2018-02-20T17:47:57.914Z,99789.98
2018-02-20T17:50:26.533Z,99788.82
2018-02-20T17:52:55.104Z,99789.81
2018-02-20T17:55:23.723Z,99785.06
2018-02-20T17:57:52.313Z,99781.91
2018-02-20T18:00:20.881Z,99791.33
2018-02-20T18:02:49.895Z,99780.84
2018-02-20T18:05:19.234Z,99786.20
2018-02-20T18:07:47.813Z,99789.32
2018-02-20T18:10:16.452Z,99783.08
2018-02-20T18:12:45.018Z,99794.13
2018-02-20T18:15:13.585Z,99793.39
2018-02-20T18:17:42.197Z,99790.92
2018-02-20T18:20:10.762Z,99794.05
2018-02-20T18:22:39.727Z,99793.58
2018-02-20T18:25:08.372Z,99794.61
2018-02-20T18:27:38.441Z,99796.35
2018-02-20T18:30:07.021Z,99802.19
2018-02-20T18:32:35.630Z,99811.83
2018-02-20T18:35:04.217Z,99808.15
2018-02-20T18:37:32.799Z,99805.39
2018-02-20T18:40:01.570Z,99805.84
2018-02-20T18:42:30.137Z,99812.30
2018-02-20T18:44:58.704Z,99812.66
2018-02-20T18:47:27.941Z,99812.95
2018-02-20T18:49:56.520Z,99806.88
2018-02-20T18:52:25.124Z,99805.66
2018-02-20T18:54:54.459Z,99806.55
2018-02-20T18:57:23.785Z,99805.61
2018-02-20T18:59:53.099Z,99813.34
2018-02-20T19:02:21.710Z,99801.03
2018-02-20T19:04:50.265Z,99803.63
2018-02-20T19:07:18.822Z,99801.11
2018-02-20T19:09:48.284Z,99802.54
2018-02-20T19:12:18.530Z,99802.75
2018-02-20T19:14:47.869Z,99802.02
2018-02-20T19:17:17.615Z,99800.75
2018-02-20T19:19:46.944Z,99798.41
2018-02-20T19:22:15.505Z,99794.82
2018-02-20T19:24:44.483Z,99794.34
2018-02-20T19:27:13.039Z,99792.66
2018-02-20T19:29:41.661Z,99788.98
2018-02-20T19:32:11.028Z,99790.34
2018-02-20T19:34:39.608Z,99785.66
2018-02-20T19:37:08.180Z,99786.98
2018-02-20T19:39:36.785Z,99790.34
2018-02-20T19:42:05.353Z,99792.70
2018-02-20T19:44:33.936Z,99787.52
2018-02-20T19:47:02.638Z,99787.20
2018-02-20T19:49:31.200Z,99785.80
2018-02-20T19:52:00.524Z,99785.48
2018-02-20T19:54:29.505Z,99785.39
2018-02-20T19:56:58.068Z,99782.75
2018-02-20T19:59:26.625Z,99781.98
2018-02-20T20:01:55.236Z,99774.70
2018-02-20T20:04:24.569Z,99778.25
2018-02-20T20:06:53.157Z,99775.76
2018-02-20T20:09:21.765Z,99768.17
2018-02-20T20:11:50.321Z,99771.69
2018-02-20T20:14:19.245Z,99767.16
2018-02-20T20:16:47.845Z,99766.18
2018-02-20T20:19:17.244Z,99765.67
2018-02-20T20:21:45.809Z,99767.23
2018-02-20T20:24:15.211Z,99766.59
2018-02-20T20:26:43.769Z,99761.59
2018-02-20T20:29:12.333Z,99759.09
2018-02-20T20:31:41.165Z,99766.16
2018-02-20T20:34:09.720Z,99762.27
2018-02-20T20:36:38.277Z,99762.23
2018-02-20T20:39:07.837Z,99765.37
2018-02-20T20:41:36.425Z,99772.09
2018-02-20T20:44:04.986Z,99768.20
2018-02-20T20:46:33.689Z,99767.28
2018-02-20T20:49:02.241Z,99767.67
2018-02-20T20:51:30.808Z,99759.44
2018-02-20T20:54:00.360Z,99755.58
2018-02-20T20:56:28.917Z,99758.69
2018-02-20T20:58:57.469Z,99762.73
2018-02-20T21:01:27.248Z,99753.73
2018-02-20T21:03:55.816Z,99765.23
2018-02-20T21:06:24.371Z,99763.31
2018-02-20T21:08:52.988Z,99768.60
2018-02-20T21:11:21.548Z,99760.16
2018-02-20T21:13:50.100Z,99757.47
2018-02-20T21:16:19.672Z,99750.88
2018-02-20T21:18:48.261Z,99752.36
2018-02-20T21:21:16.828Z,99745.99
2018-02-20T21:23:47.257Z,99744.09
2018-02-20T21:26:16.746Z,99732.17
2018-02-20T21:28:45.302Z,99735.42
2018-02-20T21:31:14.669Z,99730.11
2018-02-20T21:33:43.226Z,99735.39
2018-02-20T21:36:11.776Z,99733.80
2018-02-20T21:38:40.521Z,99736.27
2018-02-20T21:41:09.105Z,99740.03
2018-02-20T21:43:37.665Z,99743.47
2018-02-20T21:46:06.264Z,99739.00
2018-02-20T21:48:34.828Z,99736.30
2018-02-20T21:51:03.381Z,99735.08
2018-02-20T21:53:32.075Z,99730.77
2018-02-20T21:56:00.621Z,99721.43
2018-02-20T21:58:29.936Z,99725.17
2018-02-20T22:00:59.313Z,99718.70
2018-02-20T22:03:28.637Z,99724.16
2018-02-20T22:05:57.957Z,99728.08
2018-02-20T22:08:26.697Z,99724.63
2018-02-20T22:10:55.260Z,99726.44
2018-02-20T22:13:24.741Z,99727.55
2018-02-20T22:15:53.356Z,99729.13
2018-02-20T22:18:22.678Z,99732.36
2018-02-20T22:20:51.253Z,99730.71
2018-02-20T22:23:19.870Z,99738.26
2018-02-20T22:25:48.421Z,99735.06
2018-02-20T22:28:16.981Z,99738.93
2018-02-20T22:30:45.583Z,99737.21
2018-02-20T22:33:14.144Z,99744.00
2018-02-20T22:35:42.700Z,99737.02
2018-02-20T22:38:11.308Z,99745.43
2018-02-20T22:40:39.864Z,99741.83
2018-02-20T22:43:08.411Z,99739.06
2018-02-20T22:45:37.792Z,99740.88
2018-02-20T22:48:06.341Z,99742.02
2018-02-20T22:50:34.897Z,99739.53
2018-02-20T22:53:03.640Z,99740.15
2018-02-20T22:55:32.197Z,99731.92
2018-02-20T22:58:00.744Z,99736.89
2018-02-20T23:00:30.109Z,99729.66
2018-02-20T23:02:58.657Z,99729.90
2018-02-20T23:05:27.210Z,99734.28
2018-02-20T23:07:56.581Z,99739.47
2018-02-20T23:10:25.136Z,99738.36
2018-02-20T23:12:53.685Z,99739.55
2018-02-20T23:15:22.442Z,99746.34
2018-02-20T23:17:50.996Z,99740.90
2018-02-20T23:20:19.549Z,99740.72
2018-02-20T23:22:48.318Z,99736.54
2018-02-20T23:25:17.636Z,99733.64
2018-02-20T23:27:46.180Z,99735.56
2018-02-20T23:30:14.861Z,99739.32
2018-02-20T23:32:43.422Z,99736.59
2018-02-20T23:35:11.977Z,99739.47
2018-02-20T23:37:40.857Z,99739.64
2018-02-20T23:40:09.415Z,99740.50
2018-02-20T23:42:38.740Z,99737.41
2018-02-20T23:45:07.365Z,99738.91
2018-02-20T23:47:35.924Z,99733.09
2018-02-20T23:50:04.470Z,99731.51
2018-02-20T23:52:33.924Z,99734.37
2018-02-20T23:55:02.484Z,99738.94
2018-02-20T23:57:31.033Z,99731.48
2018-02-20T23:59:59.884Z,99735.39
